createdAt,value
2022-12-29T00:00:23.024Z,9.98
2022-12-29T00:02:50.242Z,7.78
2022-12-29T00:05:17.489Z,9.23
2022-12-29T00:07:44.524Z,9.48
2022-12-29T00:10:11.748Z,8.57
2022-12-29T00:12:58.664Z,9.18
2022-12-29T00:15:38.458Z,8.38
2022-12-29T00:18:06.002Z,8.95
2022-12-29T00:20:58.356Z,8.75
2022-12-29T00:23:45.540Z,8.80
2022-12-29T00:26:36.064Z,8.55
2022-12-29T00:29:23.513Z,8.02
2022-12-29T00:32:10.440Z,8.38
2022-12-29T00:34:57.391Z,7.80
2022-12-29T00:37:44.413Z,10.07
2022-12-29T00:40:31.384Z,9.23
2022-12-29T00:43:18.273Z,8.98
2022-12-29T00:45:45.502Z,8.18
2022-12-29T00:48:12.502Z,8.55
2022-12-29T00:50:39.545Z,7.35
2022-12-29T00:53:06.607Z,8.50
2022-12-29T00:55:39.202Z,7.78
2022-12-29T00:58:06.251Z,6.78
2022-12-29T01:00:33.344Z,7.72
2022-12-29T01:03:01.628Z,8.10
2022-12-29T01:05:28.824Z,8.35
2022-12-29T01:07:56.310Z,7.38
2022-12-29T01:10:23.382Z,6.32
2022-12-29T01:12:51.425Z,8.27
2022-12-29T01:15:18.548Z,7.22
2022-12-29T01:17:45.601Z,8.73
2022-12-29T01:20:13.199Z,7.10
2022-12-29T01:22:43.539Z,6.30
2022-12-29T01:25:10.771Z,6.93
2022-12-29T01:27:37.903Z,6.95
2022-12-29T01:30:05.738Z,6.65
2022-12-29T01:32:32.797Z,7.95
2022-12-29T01:34:59.867Z,6.40
2022-12-29T01:37:26.941Z,7.70
2022-12-29T01:39:53.997Z,6.65
2022-12-29T01:42:25.310Z,6.63
2022-12-29T01:44:58.813Z,7.55
2022-12-29T01:47:33.516Z,6.65
2022-12-29T01:50:06.883Z,6.53
2022-12-29T01:52:36.637Z,7.68
2022-12-29T01:55:05.808Z,6.65
2022-12-29T01:57:39.982Z,7.20
2022-12-29T02:00:11.790Z,4.60
2022-12-29T02:02:39.352Z,7.55
2022-12-29T02:05:13.947Z,6.97
2022-12-29T02:07:42.011Z,6.72
2022-12-29T02:10:09.216Z,5.70
2022-12-29T02:12:36.351Z,6.75
2022-12-29T02:15:05.072Z,5.65
2022-12-29T02:18:04.269Z,5.20
2022-12-29T02:21:11.191Z,5.82
2022-12-29T02:24:17.988Z,5.43
2022-12-29T02:27:25.397Z,5.60
2022-12-29T02:30:13.451Z,5.97
2022-12-29T02:33:05.626Z,5.35
2022-12-29T02:35:50.599Z,5.15
2022-12-29T02:38:45.557Z,5.38
2022-12-29T02:41:38.297Z,4.35
2022-12-29T02:44:30.206Z,6.97
2022-12-29T02:47:24.647Z,4.32
2022-12-29T02:50:16.513Z,4.40
2022-12-29T02:53:00.100Z,5.28
2022-12-29T02:55:27.887Z,6.53
2022-12-29T02:58:22.368Z,5.47
2022-12-29T03:01:08.365Z,6.43
2022-12-29T03:04:04.196Z,5.07
2022-12-29T03:06:55.718Z,5.82
2022-12-29T03:09:44.264Z,5.45
2022-12-29T03:12:52.879Z,5.10
2022-12-29T03:15:49.357Z,4.40
2022-12-29T03:18:35.881Z,4.07
2022-12-29T03:21:12.446Z,4.82
2022-12-29T03:23:42.360Z,4.75
2022-12-29T03:26:13.819Z,4.78
2022-12-29T03:28:47.375Z,5.20
2022-12-29T03:31:15.421Z,4.90
2022-12-29T03:33:44.418Z,6.75
2022-12-29T03:36:19.217Z,4.75
2022-12-29T03:38:52.745Z,5.68
2022-12-29T03:41:25.028Z,5.20
2022-12-29T03:43:52.127Z,4.40
2022-12-29T03:46:19.706Z,4.68
2022-12-29T03:48:46.799Z,4.43
2022-12-29T03:51:13.865Z,4.15
2022-12-29T03:53:41.642Z,5.93
2022-12-29T03:56:08.708Z,4.18
2022-12-29T03:58:36.257Z,4.85
2022-12-29T04:01:03.423Z,4.32
2022-12-29T04:03:30.506Z,5.75
2022-12-29T04:05:57.603Z,4.68
2022-12-29T04:08:24.670Z,4.53
2022-12-29T04:10:51.835Z,3.58
2022-12-29T04:13:19.034Z,4.90
2022-12-29T04:15:46.548Z,5.25
2022-12-29T04:18:14.549Z,4.15
2022-12-29T04:21:01.391Z,4.82
2022-12-29T04:23:29.400Z,4.97
2022-12-29T04:25:56.543Z,3.72
2022-12-29T04:28:23.988Z,4.70
2022-12-29T04:30:51.644Z,3.40
2022-12-29T04:33:21.204Z,4.72
2022-12-29T04:35:48.679Z,3.42
2022-12-29T04:38:16.715Z,4.47
2022-12-29T04:40:44.917Z,4.63
2022-12-29T04:43:12.823Z,4.95
2022-12-29T04:45:44.407Z,5.05
2022-12-29T04:48:11.725Z,5.05
2022-12-29T04:50:38.871Z,3.80
2022-12-29T04:53:06.306Z,3.97
2022-12-29T04:55:33.577Z,4.15
2022-12-29T04:58:00.635Z,5.95
2022-12-29T05:00:27.745Z,4.40
2022-12-29T05:02:55.041Z,3.55
2022-12-29T05:05:22.391Z,3.35
2022-12-29T05:07:49.415Z,3.50
2022-12-29T05:10:16.677Z,3.95
2022-12-29T05:12:45.531Z,3.70
2022-12-29T05:15:12.995Z,4.22
2022-12-29T05:17:40.110Z,4.28
2022-12-29T05:20:08.122Z,3.40
2022-12-29T05:22:35.156Z,4.72
2022-12-29T05:25:02.226Z,5.25
2022-12-29T05:27:29.375Z,3.90
2022-12-29T05:29:56.474Z,4.03
2022-12-29T05:32:23.517Z,3.45
2022-12-29T05:34:50.930Z,4.55
2022-12-29T05:37:18.155Z,4.68
2022-12-29T05:39:45.509Z,4.50
2022-12-29T05:42:12.555Z,4.00
2022-12-29T05:44:39.663Z,4.35
2022-12-29T05:47:06.824Z,5.05
2022-12-29T05:49:34.043Z,4.80
2022-12-29T05:52:01.091Z,4.97
2022-12-29T05:54:28.103Z,5.10
2022-12-29T05:56:55.183Z,3.45
2022-12-29T05:59:22.361Z,4.50
2022-12-29T06:01:49.545Z,4.70
2022-12-29T06:04:16.812Z,5.60
2022-12-29T06:06:44.509Z,4.60
2022-12-29T06:09:12.192Z,4.40
2022-12-29T06:11:39.217Z,4.07
2022-12-29T06:14:06.284Z,4.57
2022-12-29T06:16:33.384Z,8.55
2022-12-29T06:19:00.574Z,4.85
2022-12-29T06:21:27.605Z,5.88
2022-12-29T06:23:54.952Z,5.15
2022-12-29T06:26:21.989Z,5.70
2022-12-29T06:28:49.101Z,4.40
2022-12-29T06:31:16.177Z,5.57
2022-12-29T06:33:46.103Z,4.65
2022-12-29T06:36:18.443Z,5.00
2022-12-29T06:38:45.629Z,6.78
2022-12-29T06:41:12.702Z,6.55
2022-12-29T06:43:39.820Z,5.13
2022-12-29T06:46:07.504Z,4.43
2022-12-29T06:48:34.584Z,5.95
2022-12-29T06:51:01.684Z,5.30
2022-12-29T06:53:29.028Z,5.97
2022-12-29T06:55:57.715Z,5.07
2022-12-29T06:58:24.903Z,4.80
2022-12-29T07:00:52.206Z,4.53
2022-12-29T07:03:19.366Z,4.10
2022-12-29T07:05:46.487Z,4.32
2022-12-29T07:08:13.540Z,5.22
2022-12-29T07:10:41.288Z,5.88
2022-12-29T07:13:08.947Z,6.43
2022-12-29T07:15:38.115Z,5.65
2022-12-29T07:18:05.645Z,4.68
2022-12-29T07:20:33.214Z,5.25
2022-12-29T07:23:00.639Z,5.60
2022-12-29T07:25:27.723Z,5.38
2022-12-29T07:27:55.260Z,4.43
2022-12-29T07:30:22.290Z,6.00
2022-12-29T07:32:49.328Z,4.30
2022-12-29T07:35:16.483Z,6.57
2022-12-29T07:37:44.780Z,4.95
2022-12-29T07:40:12.220Z,5.10
2022-12-29T07:42:39.307Z,4.95
2022-12-29T07:45:07.054Z,5.05
2022-12-29T07:47:34.199Z,5.82
2022-12-29T07:50:01.277Z,5.50
2022-12-29T07:52:28.358Z,5.30
2022-12-29T07:54:55.465Z,5.90
2022-12-29T07:57:26.545Z,6.25
2022-12-29T07:59:58.455Z,5.22
2022-12-29T08:02:27.530Z,4.82
2022-12-29T08:04:54.893Z,7.60
2022-12-29T08:07:22.124Z,5.25
2022-12-29T08:09:49.187Z,7.90
2022-12-29T08:12:16.411Z,5.40
2022-12-29T08:14:43.493Z,6.22
2022-12-29T08:17:11.291Z,5.72
2022-12-29T08:19:38.853Z,6.97
2022-12-29T08:22:06.015Z,7.70
2022-12-29T08:24:33.067Z,6.43
2022-12-29T08:27:06.883Z,5.97
2022-12-29T08:29:39.576Z,7.97
2022-12-29T08:32:07.371Z,6.57
2022-12-29T08:34:34.493Z,6.50
2022-12-29T08:37:01.552Z,6.43
2022-12-29T08:39:28.828Z,6.10
2022-12-29T08:41:56.112Z,5.45
2022-12-29T08:44:23.333Z,7.32
2022-12-29T08:46:50.470Z,6.15
2022-12-29T08:49:17.629Z,7.43
2022-12-29T08:51:44.677Z,5.80
2022-12-29T08:54:11.809Z,7.07
2022-12-29T08:56:38.852Z,6.25
2022-12-29T08:59:05.954Z,7.15
2022-12-29T09:01:34.827Z,7.57
2022-12-29T09:04:18.210Z,8.45
2022-12-29T09:06:46.506Z,6.40
2022-12-29T09:09:14.242Z,6.30
2022-12-29T09:11:42.366Z,5.45
2022-12-29T09:14:09.607Z,8.23
2022-12-29T09:16:37.343Z,6.57
2022-12-29T09:19:05.054Z,6.40
2022-12-29T09:21:32.772Z,6.75
2022-12-29T09:23:59.805Z,7.72
2022-12-29T09:26:26.895Z,7.13
2022-12-29T09:28:53.946Z,7.05
2022-12-29T09:31:21.151Z,8.48
2022-12-29T09:33:48.260Z,7.68
2022-12-29T09:36:15.356Z,5.53
2022-12-29T09:38:43.200Z,6.50
2022-12-29T09:41:35.935Z,6.90
2022-12-29T09:44:13.988Z,6.43
2022-12-29T09:46:49.560Z,5.03
2022-12-29T09:49:42.234Z,6.03
2022-12-29T09:52:21.770Z,5.20
2022-12-29T09:55:13.828Z,6.37
2022-12-29T09:58:03.444Z,9.23
2022-12-29T10:01:01.380Z,5.40
2022-12-29T10:03:50.918Z,7.22
2022-12-29T10:06:32.701Z,5.65
2022-12-29T10:09:23.755Z,6.90
2022-12-29T10:12:20.328Z,7.07
2022-12-29T10:15:03.323Z,6.95
2022-12-29T10:18:01.599Z,6.85
2022-12-29T10:20:50.019Z,5.97
2022-12-29T10:23:29.995Z,5.97
2022-12-29T10:25:59.391Z,7.72
2022-12-29T10:28:44.495Z,9.05
2022-12-29T10:31:22.085Z,7.07
2022-12-29T10:33:55.010Z,6.00
2022-12-29T10:36:44.991Z,6.05
2022-12-29T10:39:24.628Z,7.90
2022-12-29T10:42:12.445Z,9.50
2022-12-29T10:44:40.127Z,5.97
2022-12-29T10:47:13.290Z,7.72
2022-12-29T10:49:43.829Z,6.50
2022-12-29T10:52:13.108Z,6.45
2022-12-29T10:54:47.533Z,6.43
2022-12-29T10:57:36.526Z,6.30
2022-12-29T11:00:17.537Z,4.85
2022-12-29T11:03:10.184Z,6.20
2022-12-29T11:06:00.381Z,6.22
2022-12-29T11:08:33.430Z,6.93
2022-12-29T11:11:06.675Z,6.65
2022-12-29T11:13:39.190Z,8.98
2022-12-29T11:16:06.763Z,5.90
2022-12-29T11:18:43.602Z,6.53
2022-12-29T11:21:35.286Z,8.00
2022-12-29T11:24:06.214Z,6.75
2022-12-29T11:26:35.164Z,7.97
2022-12-29T11:29:21.168Z,4.43
2022-12-29T11:31:50.833Z,7.38
2022-12-29T11:34:36.081Z,5.38
2022-12-29T11:37:12.260Z,4.65
2022-12-29T11:39:57.834Z,8.10
2022-12-29T11:42:39.334Z,4.72
2022-12-29T11:45:19.073Z,4.78
2022-12-29T11:47:50.753Z,5.85
2022-12-29T11:50:31.377Z,5.63
2022-12-29T11:53:14.651Z,4.75
2022-12-29T11:55:51.783Z,5.28
2022-12-29T11:58:19.129Z,4.65
2022-12-29T12:00:49.023Z,5.30
2022-12-29T12:03:22.749Z,4.72
2022-12-29T12:05:58.309Z,4.20
2022-12-29T12:08:50.015Z,5.63
2022-12-29T12:11:25.250Z,5.15
2022-12-29T12:14:01.730Z,4.10
2022-12-29T12:16:42.324Z,5.00
2022-12-29T12:19:32.045Z,4.18
2022-12-29T12:22:14.664Z,4.43
2022-12-29T12:24:50.547Z,5.05
2022-12-29T12:27:41.275Z,4.70
2022-12-29T12:30:23.588Z,3.92
2022-12-29T12:33:04.627Z,6.82
2022-12-29T12:36:11.424Z,4.22
2022-12-29T12:38:58.455Z,4.78
2022-12-29T12:41:54.184Z,4.18
2022-12-29T12:44:32.311Z,6.90
2022-12-29T12:47:26.377Z,4.22
2022-12-29T12:50:20.323Z,4.45
2022-12-29T12:53:25.906Z,4.25
2022-12-29T12:56:21.759Z,3.97
2022-12-29T12:59:07.249Z,4.50
2022-12-29T13:02:02.500Z,3.78
2022-12-29T13:05:04.675Z,3.40
2022-12-29T13:07:45.640Z,4.40
2022-12-29T13:10:53.513Z,4.15
2022-12-29T13:13:48.804Z,5.25
2022-12-29T13:16:44.288Z,3.90
2022-12-29T13:19:38.497Z,3.90
2022-12-29T13:22:40.961Z,6.43
2022-12-29T13:25:43.841Z,4.32
2022-12-29T13:28:29.567Z,4.25
2022-12-29T13:31:24.435Z,5.03
2022-12-29T13:34:20.420Z,3.72
2022-12-29T13:37:00.219Z,6.47
2022-12-29T13:39:39.012Z,3.42
2022-12-29T13:42:06.798Z,3.90
2022-12-29T13:44:52.171Z,3.67
2022-12-29T13:47:33.633Z,3.97
2022-12-29T13:50:04.488Z,4.07
2022-12-29T13:53:11.265Z,3.20
2022-12-29T13:55:50.761Z,3.65
2022-12-29T13:58:32.016Z,3.37
2022-12-29T14:01:30.131Z,3.28
2022-12-29T14:04:04.046Z,3.75
2022-12-29T14:06:41.632Z,4.50
2022-12-29T14:09:48.567Z,3.70
2022-12-29T14:12:39.562Z,3.78
2022-12-29T14:15:17.908Z,2.92
2022-12-29T14:17:45.283Z,2.95
2022-12-29T14:20:24.267Z,3.95
2022-12-29T14:23:22.551Z,3.17
2022-12-29T14:26:14.749Z,3.67
2022-12-29T14:28:44.886Z,3.17
2022-12-29T14:31:36.064Z,4.47
2022-12-29T14:34:34.486Z,4.55
2022-12-29T14:37:03.320Z,3.45
2022-12-29T14:39:45.756Z,3.72
2022-12-29T14:42:18.649Z,3.30
2022-12-29T14:44:59.600Z,3.47
2022-12-29T14:47:39.672Z,3.10
2022-12-29T14:50:15.898Z,4.70
2022-12-29T14:53:02.017Z,2.65
2022-12-29T14:55:40.769Z,3.25
2022-12-29T14:58:32.102Z,3.30
2022-12-29T15:01:01.496Z,3.33
2022-12-29T15:03:35.685Z,3.03
2022-12-29T15:06:12.697Z,3.60
2022-12-29T15:08:47.623Z,2.67
2022-12-29T15:11:19.593Z,2.42
2022-12-29T15:13:49.753Z,3.33
2022-12-29T15:16:30.964Z,3.00
2022-12-29T15:18:59.085Z,3.70
2022-12-29T15:21:30.185Z,2.33
2022-12-29T15:23:57.527Z,2.80
2022-12-29T15:26:36.972Z,2.60
2022-12-29T15:29:04.140Z,2.85
2022-12-29T15:31:31.372Z,3.05
2022-12-29T15:34:14.376Z,2.75
2022-12-29T15:36:42.646Z,3.83
2022-12-29T15:39:21.074Z,2.83
2022-12-29T15:42:05.007Z,2.88
2022-12-29T15:44:44.557Z,2.63
2022-12-29T15:47:30.693Z,2.63
2022-12-29T15:50:06.526Z,2.58
2022-12-29T15:52:35.048Z,2.90
2022-12-29T15:55:03.177Z,2.55
2022-12-29T15:57:38.629Z,3.20
2022-12-29T16:00:30.152Z,3.00
2022-12-29T16:03:00.528Z,2.50
2022-12-29T16:05:36.653Z,3.72
2022-12-29T16:08:05.115Z,2.90
2022-12-29T16:10:42.426Z,2.95
2022-12-29T16:13:31.460Z,2.35
2022-12-29T16:16:14.770Z,2.85
2022-12-29T16:18:41.830Z,3.42
2022-12-29T16:21:20.270Z,2.08
2022-12-29T16:23:51.425Z,2.08
2022-12-29T16:26:20.537Z,3.08
2022-12-29T16:28:56.905Z,4.25
2022-12-29T16:31:29.702Z,2.50
2022-12-29T16:33:58.046Z,2.70
2022-12-29T16:36:35.833Z,3.05
2022-12-29T16:39:27.569Z,1.98
2022-12-29T16:41:56.085Z,1.90
2022-12-29T16:44:31.760Z,3.03
2022-12-29T16:47:20.096Z,2.72
2022-12-29T16:49:52.527Z,2.22
2022-12-29T16:52:23.741Z,2.40
2022-12-29T16:54:55.733Z,2.05
2022-12-29T16:57:35.927Z,2.60
2022-12-29T17:00:07.641Z,2.55
2022-12-29T17:02:45.906Z,2.50
2022-12-29T17:05:17.936Z,2.35
2022-12-29T17:07:45.893Z,2.30
2022-12-29T17:10:14.904Z,2.10
2022-12-29T17:12:44.169Z,3.13
2022-12-29T17:15:35.344Z,2.83
2022-12-29T17:18:02.618Z,2.67
2022-12-29T17:20:31.779Z,2.40
2022-12-29T17:23:00.338Z,2.75
2022-12-29T17:25:34.366Z,1.95
2022-12-29T17:28:12.442Z,2.33
2022-12-29T17:30:41.044Z,3.47
2022-12-29T17:33:13.882Z,2.95
2022-12-29T17:35:41.021Z,2.35
2022-12-29T17:38:26.224Z,2.22
2022-12-29T17:40:53.351Z,2.63
2022-12-29T17:43:20.933Z,2.35
2022-12-29T17:45:53.979Z,2.22
2022-12-29T17:48:21.957Z,2.55
2022-12-29T17:50:51.766Z,2.10
2022-12-29T17:53:27.968Z,3.30
2022-12-29T17:55:55.126Z,2.95
2022-12-29T17:58:25.889Z,3.17
2022-12-29T18:00:56.381Z,2.95
2022-12-29T18:05:52.699Z,2.33
2022-12-29T18:08:19.774Z,2.50
2022-12-29T18:10:47.621Z,2.58
2022-12-29T18:13:27.150Z,2.15
2022-12-29T18:15:57.425Z,2.53
2022-12-29T18:18:26.905Z,2.67
2022-12-29T18:20:56.388Z,2.20
2022-12-29T18:23:26.712Z,4.88
2022-12-29T18:26:07.553Z,2.20
2022-12-29T18:28:34.599Z,2.38
2022-12-29T18:31:02.441Z,3.05
2022-12-29T18:33:30.367Z,2.22
2022-12-29T18:36:03.311Z,2.17
2022-12-29T18:38:30.889Z,2.75
2022-12-29T18:40:59.212Z,2.30
2022-12-29T18:43:26.340Z,2.35
2022-12-29T18:45:53.510Z,2.67
2022-12-29T18:48:21.209Z,2.10
2022-12-29T18:50:51.144Z,2.47
2022-12-29T18:53:24.213Z,2.30
2022-12-29T18:55:52.624Z,2.47
2022-12-29T18:58:19.903Z,3.17
2022-12-29T19:00:47.624Z,3.15
2022-12-29T19:03:17.306Z,2.30
2022-12-29T19:05:46.527Z,2.38
2022-12-29T19:08:13.993Z,3.28
2022-12-29T19:10:42.331Z,2.22
2022-12-29T19:13:23.749Z,2.22
2022-12-29T19:15:50.865Z,3.78
2022-12-29T19:21:12.303Z,3.85
2022-12-29T19:23:39.430Z,2.40
2022-12-29T19:26:06.600Z,2.30
2022-12-29T19:28:33.674Z,2.33
2022-12-29T19:31:02.868Z,2.10
2022-12-29T19:33:30.217Z,2.42
2022-12-29T19:36:02.101Z,3.13
2022-12-29T19:38:29.769Z,2.35
2022-12-29T19:40:56.973Z,2.30
2022-12-29T19:43:24.095Z,3.30
2022-12-29T19:45:52.581Z,2.53
2022-12-29T19:48:21.016Z,2.78
2022-12-29T19:50:48.374Z,2.33
2022-12-29T19:53:16.148Z,2.83
2022-12-29T19:55:47.164Z,2.10
2022-12-29T19:58:15.010Z,3.22
2022-12-29T20:00:43.595Z,2.45
2022-12-29T20:03:11.311Z,2.80
2022-12-29T20:05:39.399Z,4.60
2022-12-29T20:08:07.235Z,2.55
2022-12-29T20:10:34.627Z,2.85
2022-12-29T20:13:02.803Z,3.05
2022-12-29T20:15:29.885Z,3.15
2022-12-29T20:18:14.576Z,3.00
2022-12-29T20:20:43.115Z,2.65
2022-12-29T20:23:10.242Z,2.75
2022-12-29T20:25:46.002Z,3.60
2022-12-29T20:28:15.017Z,3.08
2022-12-29T20:30:42.199Z,2.88
2022-12-29T20:33:09.550Z,2.88
2022-12-29T20:35:37.637Z,3.20
2022-12-29T20:38:05.338Z,2.20
2022-12-29T20:40:38.141Z,2.50
2022-12-29T20:43:10.124Z,3.17
2022-12-29T20:45:37.187Z,2.83
2022-12-29T20:48:04.335Z,2.47
2022-12-29T20:50:31.528Z,3.50
2022-12-29T20:52:58.626Z,2.50
2022-12-29T20:55:25.739Z,2.35
2022-12-29T21:00:39.924Z,2.25
2022-12-29T21:03:07.509Z,3.13
2022-12-29T21:05:37.634Z,2.97
2022-12-29T21:08:07.059Z,2.80
2022-12-29T21:10:34.189Z,2.42
2022-12-29T21:13:01.784Z,2.58
2022-12-29T21:15:30.137Z,2.67
2022-12-29T21:17:57.265Z,3.55
2022-12-29T21:20:31.904Z,2.65
2022-12-29T21:23:01.227Z,2.75
2022-12-29T21:25:39.112Z,2.30
2022-12-29T21:28:07.734Z,4.00
2022-12-29T21:30:35.748Z,2.97
2022-12-29T21:33:03.061Z,3.10
2022-12-29T21:35:30.676Z,2.92
2022-12-29T21:37:57.749Z,2.58
2022-12-29T21:40:24.899Z,3.13
2022-12-29T21:42:51.993Z,3.15
2022-12-29T21:45:25.496Z,3.05
2022-12-29T21:48:14.971Z,3.00
2022-12-29T21:51:03.708Z,3.03
2022-12-29T21:53:38.305Z,2.90
2022-12-29T21:56:15.048Z,3.50
2022-12-29T21:59:06.486Z,2.58
2022-12-29T22:01:57.254Z,3.53
2022-12-29T22:04:46.385Z,3.53
2022-12-29T22:07:33.568Z,2.63
2022-12-29T22:10:20.531Z,3.10
2022-12-29T22:13:01.123Z,2.40
2022-12-29T22:17:56.585Z,3.05
2022-12-29T22:20:26.810Z,2.70
2022-12-29T22:22:54.030Z,2.83
2022-12-29T22:25:21.740Z,3.25
2022-12-29T22:27:54.202Z,2.60
2022-12-29T22:30:22.903Z,3.03
2022-12-29T22:32:49.972Z,2.83
2022-12-29T22:35:17.102Z,2.60
2022-12-29T22:37:44.214Z,2.50
2022-12-29T22:40:12.193Z,3.10
2022-12-29T22:42:39.707Z,2.65
2022-12-29T22:45:08.048Z,2.80
2022-12-29T22:47:35.483Z,2.55
2022-12-29T22:50:02.756Z,3.25
2022-12-29T22:52:29.910Z,3.10
2022-12-29T22:55:01.657Z,2.60
2022-12-29T22:57:32.083Z,2.40
2022-12-29T22:59:59.200Z,3.08
2022-12-29T23:02:26.872Z,2.30
2022-12-29T23:05:09.500Z,2.78
2022-12-29T23:07:36.706Z,2.90
2022-12-29T23:10:05.154Z,2.58
2022-12-29T23:12:32.742Z,3.25
2022-12-29T23:14:59.846Z,2.95
2022-12-29T23:17:27.103Z,2.85
2022-12-29T23:19:54.522Z,3.42
2022-12-29T23:22:23.143Z,2.47
2022-12-29T23:24:50.340Z,3.20
2022-12-29T23:27:17.491Z,2.35
2022-12-29T23:29:44.529Z,2.45
2022-12-29T23:32:11.666Z,2.53
2022-12-29T23:34:38.763Z,2.80
2022-12-29T23:37:05.825Z,3.47
2022-12-29T23:39:32.937Z,3.22
2022-12-29T23:42:00.008Z,1.90
2022-12-29T23:44:27.116Z,2.58
2022-12-29T23:46:54.358Z,2.95
2022-12-29T23:49:21.452Z,2.75
2022-12-29T23:51:48.476Z,2.45
2022-12-29T23:54:15.565Z,2.00
2022-12-29T23:56:42.613Z,3.05
2022-12-29T23:59:09.709Z,2.50
